Chute-aux-Outardes, Canada
Current Conditions -  °F | °C
As of 11:00 PM on Tuesday 21 Oct 2014 (Local Time) from CYBC Reporting Station
Clear Clear  
Wind Chill: 36°   Ceiling: Unl
Heat Index: 41°   Visibility: 9mi
Dew Point: 34°   Wind: 7mph
Humidity: 76%   Direction: 40°NE
Pressure: 30.34"   Gusts: NA
Location:  49.13°N, 68.39°W
Report Text: CYBC 220300Z AUTO 04006KT 9SM CLR 05/01 A3034 RMK SLP274
Loading
Personal Weather Stations






























Interactive Weather Map
Tropical Storm Tracking
New forecast layout! Learn more

10-Day Weather Forecast

Advertisements
Track Severe Weather on mobile